Time;durP1;ratioP1;P1;durP2;ratioP2;P2;SDS_P1;SDS_P2;PMS_P1;PMS_P2;Temp;Humidity;BMP_temperature;BMP_pressure;BME280_temperature;BME280_humidity;BME280_pressure;Samples;Min_cycle;Max_cycle;Signal;HPM_P1;HPM_P2
2021/09/04 00:01:51;;;;;;;7.07;2.30;;;15.20;99.90;;;;;;5020022;28;20727;-61
2021/09/04 00:04:19;;;;;;;5.83;2.20;;;15.30;99.90;;;;;;5018580;28;20747;-64
2021/09/04 00:06:47;;;;;;;5.63;2.30;;;15.30;99.90;;;;;;5026751;28;20243;-62
2021/09/04 00:09:15;;;;;;;4.70;2.00;;;15.20;99.90;;;;;;5016027;28;20781;-64
2021/09/04 00:11:44;;;;;;;6.20;2.10;;;15.30;99.90;;;;;;5039231;28;20248;-62
2021/09/04 00:14:13;;;;;;;6.47;2.77;;;15.20;99.90;;;;;;5024311;28;20237;-62
2021/09/04 00:16:42;;;;;;;4.33;2.10;;;15.20;99.90;;;;;;5024708;28;20238;-63
2021/09/04 00:19:11;;;;;;;7.07;1.87;;;15.10;99.90;;;;;;5024365;28;20263;-62
2021/09/04 00:21:39;;;;;;;5.20;2.03;;;15.10;99.90;;;;;;5025994;28;20237;-64
2021/09/04 00:24:08;;;;;;;6.43;2.20;;;15.10;99.90;;;;;;5024888;28;20252;-64
2021/09/04 00:26:36;;;;;;;5.07;1.97;;;15.10;99.90;;;;;;5023833;28;20316;-63
2021/09/04 00:29:04;;;;;;;5.20;2.07;;;15.00;99.90;;;;;;5023814;28;20700;-62
2021/09/04 00:31:32;;;;;;;6.33;2.20;;;15.00;99.90;;;;;;5020439;28;20244;-62
2021/09/04 00:34:00;;;;;;;4.97;2.20;;;15.00;99.90;;;;;;5023687;28;20378;-63
2021/09/04 00:36:30;;;;;;;4.10;2.27;;;14.90;99.90;;;;;;5021800;28;20246;-63
2021/09/04 00:38:58;;;;;;;5.43;2.10;;;14.80;99.90;;;;;;5016920;28;20319;-63
2021/09/04 00:41:26;;;;;;;6.33;2.33;;;14.90;99.90;;;;;;5022234;28;20602;-63
2021/09/04 00:43:54;;;;;;;5.13;2.33;;;14.80;99.90;;;;;;5023585;28;20302;-63
2021/09/04 00:46:22;;;;;;;6.53;2.13;;;14.80;99.90;;;;;;5022169;28;20238;-64
2021/09/04 00:48:50;;;;;;;5.33;1.93;;;14.90;99.90;;;;;;5019575;28;20432;-63
2021/09/04 00:51:18;;;;;;;8.57;2.53;;;15.00;99.90;;;;;;5020280;28;20320;-63
2021/09/04 00:53:48;;;;;;;5.47;2.37;;;15.00;99.90;;;;;;5016799;28;20257;-64
2021/09/04 00:56:16;;;;;;;4.80;2.50;;;15.00;99.90;;;;;;5015418;28;20592;-64
2021/09/04 00:58:45;;;;;;;4.20;2.13;;;15.00;99.90;;;;;;5020485;28;20517;-63
2021/09/04 01:01:14;;;;;;;4.33;1.97;;;15.10;99.90;;;;;;5020464;28;20267;-62
2021/09/04 01:03:43;;;;;;;4.73;2.10;;;15.20;99.90;;;;;;5023736;28;20801;-63
2021/09/04 01:06:14;;;;;;;3.83;2.03;;;15.20;99.90;;;;;;5022333;28;20233;-64
2021/09/04 01:08:42;;;;;;;7.23;2.23;;;15.20;99.90;;;;;;5021423;28;20272;-64
2021/09/04 01:11:15;;;;;;;9.63;2.53;;;15.10;99.90;;;;;;5024113;28;20244;-63
2021/09/04 01:13:43;;;;;;;5.80;1.90;;;15.00;99.90;;;;;;5021546;28;20232;-63
2021/09/04 01:16:11;;;;;;;8.77;2.60;;;15.10;99.90;;;;;;5022587;28;20244;-63
2021/09/04 01:18:40;;;;;;;10.67;2.40;;;15.00;99.90;;;;;;5020907;28;20770;-64
2021/09/04 01:21:10;;;;;;;6.03;2.20;;;15.00;99.90;;;;;;5024969;28;20243;-63
2021/09/04 01:23:39;;;;;;;5.63;2.40;;;15.00;99.90;;;;;;5018229;28;20337;-64
2021/09/04 01:26:10;;;;;;;4.77;2.10;;;15.00;99.90;;;;;;5020809;28;20587;-64
2021/09/04 01:28:40;;;;;;;5.03;2.33;;;15.10;99.90;;;;;;5021946;28;20288;-63
2021/09/04 01:31:08;;;;;;;5.50;3.00;;;15.10;99.90;;;;;;5021483;28;21304;-63
2021/09/04 01:33:43;;;;;;;6.70;2.30;;;15.20;99.90;;;;;;5016887;28;20713;-63
2021/09/04 01:36:12;;;;;;;4.43;2.47;;;15.30;99.90;;;;;;5022352;28;20313;-63
2021/09/04 01:38:41;;;;;;;5.00;2.07;;;15.40;99.90;;;;;;5016160;28;20241;-63
2021/09/04 01:41:11;;;;;;;5.33;2.43;;;15.30;99.90;;;;;;5018711;28;20268;-63
2021/09/04 01:43:39;;;;;;;6.47;2.30;;;15.30;99.90;;;;;;5016628;28;20233;-64
2021/09/04 01:46:07;;;;;;;6.67;2.43;;;15.30;99.90;;;;;;5025543;28;20232;-64
2021/09/04 01:48:35;;;;;;;4.73;2.10;;;15.20;99.90;;;;;;5022698;28;20240;-62
2021/09/04 01:51:03;;;;;;;5.30;2.47;;;15.10;99.90;;;;;;5027030;28;20244;-62
2021/09/04 01:53:31;;;;;;;9.67;2.63;;;15.00;99.90;;;;;;5021878;28;20279;-63
2021/09/04 01:56:00;;;;;;;5.80;2.10;;;15.10;99.90;;;;;;5019937;28;20229;-63
2021/09/04 01:58:29;;;;;;;6.60;2.80;;;15.20;99.90;;;;;;5023992;28;21059;-63
2021/09/04 02:00:58;;;;;;;5.63;2.37;;;15.20;99.90;;;;;;5019938;28;20335;-62
2021/09/04 02:03:26;;;;;;;6.60;2.00;;;15.10;99.90;;;;;;5021636;28;20247;-62
2021/09/04 02:05:54;;;;;;;5.93;2.20;;;14.90;99.90;;;;;;5025532;28;20658;-63
2021/09/04 02:08:23;;;;;;;7.50;2.43;;;15.00;99.90;;;;;;5021521;28;20266;-64
2021/09/04 02:10:51;;;;;;;5.83;2.30;;;14.90;99.90;;;;;;5023122;28;20253;-63
2021/09/04 02:13:19;;;;;;;4.97;2.17;;;15.00;99.90;;;;;;5023210;28;20607;-63
2021/09/04 02:15:48;;;;;;;4.70;2.10;;;15.10;99.90;;;;;;5027685;28;20264;-63
2021/09/04 02:18:16;;;;;;;4.37;1.83;;;15.20;99.90;;;;;;5012747;28;20232;-63
2021/09/04 02:20:46;;;;;;;2.83;1.70;;;15.20;99.90;;;;;;5023438;28;20290;-63
2021/09/04 02:23:16;;;;;;;4.00;1.93;;;15.20;99.90;;;;;;5019123;28;20236;-63
2021/09/04 02:25:45;;;;;;;5.00;2.10;;;15.30;99.90;;;;;;5020662;28;20237;-61
2021/09/04 02:28:14;;;;;;;5.73;2.10;;;15.30;99.90;;;;;;5052112;28;20595;-63
2021/09/04 02:30:43;;;;;;;5.00;2.10;;;15.30;99.90;;;;;;5055374;28;20316;-64
2021/09/04 02:33:13;;;;;;;5.50;2.07;;;15.30;99.90;;;;;;5056135;28;20235;-63
2021/09/04 02:35:42;;;;;;;4.20;2.10;;;15.30;99.90;;;;;;5056510;28;20674;-63
2021/09/04 02:38:10;;;;;;;4.47;2.40;;;15.30;99.90;;;;;;5049257;28;20235;-63
2021/09/04 02:40:38;;;;;;;6.67;2.33;;;15.30;99.90;;;;;;5055907;28;20302;-63
2021/09/04 02:43:07;;;;;;;5.70;2.03;;;15.20;99.90;;;;;;5058811;28;20231;-64
2021/09/04 02:45:35;;;;;;;5.53;2.10;;;15.30;99.90;;;;;;5055041;28;20249;-63
2021/09/04 02:48:04;;;;;;;5.97;2.33;;;15.20;99.90;;;;;;5058497;28;20223;-63
2021/09/04 02:50:34;;;;;;;6.43;1.97;;;15.20;99.90;;;;;;5058426;28;20231;-63
2021/09/04 02:53:06;;;;;;;4.43;1.80;;;15.40;99.90;;;;;;5058244;28;20243;-61
2021/09/04 02:55:35;;;;;;;4.23;2.10;;;15.40;99.90;;;;;;5044377;28;20232;-63
2021/09/04 02:58:04;;;;;;;4.73;1.93;;;15.50;99.90;;;;;;5051800;28;20239;-62
2021/09/04 03:00:33;;;;;;;3.83;2.03;;;15.40;99.90;;;;;;5051510;28;20788;-63
2021/09/04 03:03:01;;;;;;;6.23;2.00;;;15.40;99.90;;;;;;5051880;28;20246;-63
2021/09/04 03:05:30;;;;;;;4.67;1.80;;;15.40;99.90;;;;;;5042964;28;20788;-62
2021/09/04 03:08:00;;;;;;;5.47;2.07;;;15.30;99.90;;;;;;5064976;28;20285;-63
2021/09/04 03:10:28;;;;;;;5.10;1.90;;;15.30;99.90;;;;;;5056305;28;20297;-62
2021/09/04 03:12:57;;;;;;;4.47;1.73;;;15.40;99.90;;;;;;5055236;28;20231;-64
2021/09/04 03:15:26;;;;;;;8.03;2.50;;;15.40;99.90;;;;;;5049422;28;20726;-63
2021/09/04 03:17:54;;;;;;;6.37;2.20;;;15.30;99.90;;;;;;5054923;28;20687;-64
2021/09/04 03:20:24;;;;;;;3.50;2.03;;;15.40;99.90;;;;;;5050558;28;20515;-62
2021/09/04 03:22:52;;;;;;;5.77;2.40;;;15.50;99.90;;;;;;5052546;28;20231;-62
2021/09/04 03:25:22;;;;;;;4.07;1.80;;;15.60;99.90;;;;;;5057581;28;20298;-62
2021/09/04 03:27:51;;;;;;;4.63;2.17;;;15.70;99.90;;;;;;5059739;28;20771;-63
2021/09/04 03:30:19;;;;;;;4.97;2.40;;;15.70;99.90;;;;;;5049796;28;20232;-63
2021/09/04 03:32:47;;;;;;;5.30;2.30;;;15.80;99.90;;;;;;5050227;28;20234;-62
2021/09/04 03:35:15;;;;;;;6.90;2.10;;;15.70;99.90;;;;;;5063979;28;20268;-62
2021/09/04 03:37:44;;;;;;;4.60;2.10;;;15.80;99.90;;;;;;5059663;28;20235;-63
2021/09/04 03:40:13;;;;;;;5.83;2.00;;;15.70;99.90;;;;;;5054055;28;20232;-63
2021/09/04 03:42:43;;;;;;;4.80;2.10;;;15.50;99.90;;;;;;5051633;28;20235;-63
2021/09/04 03:45:12;;;;;;;5.37;2.27;;;15.50;99.90;;;;;;5051489;28;20239;-63
2021/09/04 03:47:42;;;;;;;5.07;2.00;;;15.30;99.90;;;;;;5053897;28;20240;-63
2021/09/04 03:50:12;;;;;;;6.80;2.30;;;15.30;99.90;;;;;;5051863;28;20583;-61
2021/09/04 03:52:40;;;;;;;4.87;2.10;;;15.30;99.90;;;;;;5052565;28;20232;-63
2021/09/04 03:55:10;;;;;;;6.37;2.07;;;15.40;99.90;;;;;;5050213;28;20327;-63
2021/09/04 03:57:41;;;;;;;7.00;2.20;;;15.50;99.90;;;;;;5052157;28;20235;-64
2021/09/04 04:00:11;;;;;;;2.43;1.93;;;15.40;99.90;;;;;;5052069;28;20232;-63
2021/09/04 04:02:39;;;;;;;4.77;2.30;;;15.50;99.90;;;;;;5055340;28;20248;-63
2021/09/04 04:05:09;;;;;;;8.07;2.07;;;15.50;99.90;;;;;;5049017;28;20939;-62
2021/09/04 04:07:38;;;;;;;4.67;2.00;;;15.40;99.90;;;;;;5061185;28;20239;-64
2021/09/04 04:10:08;;;;;;;7.07;2.17;;;15.30;99.90;;;;;;5052705;28;20225;-62
2021/09/04 04:12:36;;;;;;;5.73;2.10;;;15.30;99.90;;;;;;5056045;28;20780;-63
2021/09/04 04:15:06;;;;;;;4.63;2.20;;;15.40;99.90;;;;;;5057477;28;20224;-62
2021/09/04 04:17:37;;;;;;;4.83;2.33;;;15.50;99.90;;;;;;5056101;28;20629;-64
2021/09/04 04:20:07;;;;;;;6.80;2.20;;;15.60;99.90;;;;;;5062349;28;20663;-63
2021/09/04 04:22:35;;;;;;;5.03;2.43;;;15.50;99.90;;;;;;5055432;28;20236;-62
2021/09/04 04:25:04;;;;;;;4.03;2.47;;;15.50;99.90;;;;;;5060285;28;20530;-63
2021/09/04 04:27:33;;;;;;;4.80;2.40;;;15.50;99.90;;;;;;5048371;28;20318;-63
2021/09/04 04:30:03;;;;;;;6.43;2.57;;;15.50;99.90;;;;;;5051782;28;20251;-63
2021/09/04 04:32:33;;;;;;;4.23;2.07;;;15.50;99.90;;;;;;5051122;28;20227;-63
2021/09/04 04:35:02;;;;;;;4.23;2.10;;;15.50;99.90;;;;;;5051507;28;20598;-63
2021/09/04 04:37:33;;;;;;;5.33;2.00;;;15.40;99.90;;;;;;5052749;28;20236;-62
2021/09/04 04:40:03;;;;;;;4.40;2.20;;;15.40;99.90;;;;;;5061356;28;20238;-63
2021/09/04 04:42:31;;;;;;;5.93;2.20;;;15.50;99.90;;;;;;5056675;28;20232;-64
2021/09/04 04:45:01;;;;;;;4.80;2.60;;;15.50;99.90;;;;;;5054683;28;20267;-63
2021/09/04 04:47:32;;;;;;;5.43;2.30;;;15.50;99.90;;;;;;5050145;28;20236;-63
2021/09/04 04:50:02;;;;;;;6.60;2.33;;;15.50;99.90;;;;;;5047258;28;20239;-63
2021/09/04 04:52:31;;;;;;;4.30;2.30;;;15.40;99.90;;;;;;5051991;28;20322;-63
2021/09/04 04:54:59;;;;;;;5.53;2.20;;;15.50;99.90;;;;;;5048868;28;20723;-62
2021/09/04 04:57:28;;;;;;;5.30;2.40;;;15.40;99.90;;;;;;5046472;28;20239;-63
2021/09/04 04:59:58;;;;;;;7.20;2.50;;;15.40;99.90;;;;;;5052214;28;20846;-63
2021/09/04 05:02:26;;;;;;;6.40;2.40;;;15.30;99.90;;;;;;5043775;28;20283;-62
2021/09/04 05:04:56;;;;;;;4.97;2.37;;;15.30;99.90;;;;;;5049073;28;20281;-63
2021/09/04 05:07:25;;;;;;;4.97;2.30;;;15.20;99.90;;;;;;5047244;28;20232;-62
2021/09/04 05:09:53;;;;;;;5.47;2.30;;;15.30;99.90;;;;;;5048035;28;20259;-63
2021/09/04 05:12:22;;;;;;;5.57;2.23;;;15.30;99.90;;;;;;5047100;28;20643;-63
2021/09/04 05:14:50;;;;;;;4.07;2.70;;;15.50;99.90;;;;;;5052861;28;20226;-62
2021/09/04 05:17:19;;;;;;;5.87;2.47;;;15.70;99.90;;;;;;5048077;28;20492;-63
2021/09/04 05:19:48;;;;;;;5.33;2.47;;;15.60;99.90;;;;;;5048616;28;20238;-63
2021/09/04 05:22:16;;;;;;;4.43;2.40;;;15.50;99.90;;;;;;5046198;28;20236;-62
2021/09/04 05:24:46;;;;;;;5.60;2.77;;;15.50;99.90;;;;;;5046720;28;20714;-63
2021/09/04 05:27:14;;;;;;;4.50;2.47;;;15.50;99.90;;;;;;5049174;28;20311;-63
2021/09/04 05:29:42;;;;;;;4.63;2.37;;;15.50;99.90;;;;;;5049620;28;20243;-64
2021/09/04 05:32:10;;;;;;;5.70;2.43;;;15.50;99.90;;;;;;5052777;28;20506;-63
2021/09/04 05:34:38;;;;;;;3.87;2.60;;;15.50;99.90;;;;;;5048748;28;20232;-62
2021/09/04 05:37:06;;;;;;;4.70;2.73;;;15.50;99.90;;;;;;5035917;28;20236;-63
2021/09/04 05:39:34;;;;;;;7.60;2.47;;;15.60;99.90;;;;;;5032346;28;20550;-62
2021/09/04 05:42:04;;;;;;;7.37;2.30;;;15.50;99.90;;;;;;5032301;28;20330;-61
2021/09/04 05:44:32;;;;;;;7.93;2.80;;;15.60;99.90;;;;;;5031896;28;20235;-62
2021/09/04 05:47:00;;;;;;;5.87;2.80;;;15.60;99.90;;;;;;5035822;28;20258;-62
2021/09/04 05:49:28;;;;;;;4.87;2.73;;;15.60;99.90;;;;;;5040648;28;20284;-62
2021/09/04 05:51:56;;;;;;;5.50;2.43;;;15.70;99.90;;;;;;5032304;28;20235;-64
2021/09/04 05:54:24;;;;;;;5.37;2.77;;;15.70;99.90;;;;;;5036188;28;20335;-62
2021/09/04 05:56:52;;;;;;;7.57;2.97;;;15.80;99.90;;;;;;5040639;28;20927;-63
2021/09/04 05:59:21;;;;;;;8.37;3.37;;;15.80;99.90;;;;;;5037730;28;20445;-62
2021/09/04 06:01:50;;;;;;;7.07;2.60;;;15.90;99.90;;;;;;5032510;28;20827;-63
2021/09/04 06:04:19;;;;;;;5.83;2.90;;;15.90;99.90;;;;;;5034553;28;20246;-63
2021/09/04 06:06:47;;;;;;;6.30;2.70;;;15.90;99.90;;;;;;5033319;28;20246;-62
2021/09/04 06:09:15;;;;;;;9.60;3.00;;;15.90;99.90;;;;;;5034323;28;20283;-63
2021/09/04 06:11:44;;;;;;;5.23;2.83;;;15.90;99.90;;;;;;5027563;28;20246;-63
2021/09/04 06:14:13;;;;;;;8.00;3.03;;;15.90;99.90;;;;;;5030274;28;20267;-62
2021/09/04 06:16:42;;;;;;;4.20;2.67;;;15.90;99.90;;;;;;5036034;28;20329;-62
2021/09/04 06:19:10;;;;;;;5.17;2.80;;;16.00;99.90;;;;;;5038421;28;20350;-62
2021/09/04 06:21:38;;;;;;;7.13;2.77;;;16.00;99.90;;;;;;5030658;28;20239;-63
2021/09/04 06:24:07;;;;;;;8.03;3.27;;;16.10;99.90;;;;;;5033519;28;20335;-61
2021/09/04 06:26:35;;;;;;;4.40;3.07;;;16.10;99.90;;;;;;5036289;28;20247;-63
2021/09/04 06:29:05;;;;;;;5.33;3.00;;;16.10;99.90;;;;;;5041015;28;20246;-63
2021/09/04 06:31:33;;;;;;;6.37;2.90;;;16.20;99.90;;;;;;5027943;28;20275;-64
2021/09/04 06:34:02;;;;;;;8.73;3.20;;;16.20;99.90;;;;;;5031065;28;20249;-62
2021/09/04 06:36:30;;;;;;;7.40;2.90;;;16.20;99.90;;;;;;5033812;28;20236;-63
2021/09/04 06:38:59;;;;;;;7.77;3.30;;;16.20;99.90;;;;;;5032668;28;20882;-63
2021/09/04 06:41:27;;;;;;;7.83;3.10;;;16.30;99.90;;;;;;5039733;28;20596;-62
2021/09/04 06:43:55;;;;;;;6.67;3.47;;;16.30;99.90;;;;;;5038348;28;20895;-64
2021/09/04 06:46:23;;;;;;;6.63;3.77;;;16.30;99.90;;;;;;5039488;28;20241;-63
2021/09/04 06:48:51;;;;;;;7.50;3.70;;;16.40;99.90;;;;;;5036250;28;20718;-62
2021/09/04 06:51:20;;;;;;;7.83;3.40;;;16.40;99.90;;;;;;5035307;28;20228;-62
2021/09/04 06:53:48;;;;;;;9.33;4.07;;;16.50;99.90;;;;;;5034821;28;20318;-62
2021/09/04 06:56:17;;;;;;;6.73;3.87;;;16.60;99.90;;;;;;5008587;28;20237;-62
2021/09/04 06:58:45;;;;;;;7.60;3.73;;;16.60;99.90;;;;;;5005155;28;20689;-63
2021/09/04 07:01:13;;;;;;;6.73;3.83;;;16.60;99.90;;;;;;5000945;28;20233;-62
2021/09/04 07:03:41;;;;;;;8.10;4.27;;;16.70;99.90;;;;;;5007218;28;20256;-62
2021/09/04 07:06:10;;;;;;;9.00;5.00;;;16.80;99.90;;;;;;5011200;28;20572;-62
2021/09/04 07:08:39;;;;;;;10.50;5.03;;;16.90;99.90;;;;;;5011701;28;20244;-64
2021/09/04 07:11:08;;;;;;;7.80;5.13;;;16.90;99.90;;;;;;5041853;28;20318;-63
2021/09/04 07:13:36;;;;;;;9.63;4.90;;;17.00;99.90;;;;;;5047131;28;21020;-63
2021/09/04 07:16:04;;;;;;;10.07;5.87;;;17.10;99.90;;;;;;5050372;28;20235;-64
2021/09/04 07:18:33;;;;;;;11.57;5.20;;;17.20;99.90;;;;;;5054151;28;20338;-62
2021/09/04 07:21:01;;;;;;;8.27;5.33;;;17.20;99.90;;;;;;5051612;28;20292;-63
2021/09/04 07:23:29;;;;;;;9.63;5.93;;;17.30;99.90;;;;;;5055461;28;20373;-65
2021/09/04 07:25:58;;;;;;;11.53;5.80;;;17.40;99.90;;;;;;5050983;28;20718;-64
2021/09/04 07:28:26;;;;;;;9.30;5.80;;;17.50;99.90;;;;;;5047846;28;20323;-64
2021/09/04 07:30:54;;;;;;;13.17;5.80;;;17.40;99.90;;;;;;5054817;28;20224;-65
2021/09/04 07:33:22;;;;;;;10.37;5.87;;;17.60;99.90;;;;;;5050707;28;20319;-61
2021/09/04 07:35:50;;;;;;;13.77;6.97;;;17.70;99.90;;;;;;5052659;28;20239;-64
2021/09/04 07:38:18;;;;;;;10.97;6.20;;;17.70;99.90;;;;;;5044800;28;20303;-64
2021/09/04 07:40:46;;;;;;;11.40;7.10;;;17.70;99.90;;;;;;5052599;28;20230;-64
2021/09/04 07:43:16;;;;;;;17.47;6.57;;;17.70;99.90;;;;;;5051586;28;20265;-64
2021/09/04 07:45:44;;;;;;;14.13;6.97;;;17.70;99.90;;;;;;5054705;28;20239;-65
2021/09/04 07:48:12;;;;;;;10.63;7.20;;;17.80;99.90;;;;;;5050968;28;20248;-63
2021/09/04 07:50:41;;;;;;;11.83;7.60;;;17.90;99.90;;;;;;5056893;28;20316;-63
2021/09/04 07:53:09;;;;;;;15.33;8.17;;;18.00;99.90;;;;;;5054109;28;20295;-65
2021/09/04 07:55:37;;;;;;;15.87;7.97;;;18.00;99.90;;;;;;5055974;28;20313;-65
2021/09/04 07:58:05;;;;;;;12.87;7.70;;;18.00;99.90;;;;;;5052850;28;20352;-65
2021/09/04 08:00:34;;;;;;;11.87;6.87;;;18.00;99.90;;;;;;5053466;28;20271;-64
2021/09/04 08:03:03;;;;;;;12.83;7.50;;;18.10;99.90;;;;;;5048389;28;20240;-64
2021/09/04 08:05:31;;;;;;;10.93;6.77;;;18.20;99.90;;;;;;5042220;28;20254;-65
2021/09/04 08:07:59;;;;;;;12.30;7.17;;;18.20;99.90;;;;;;5052374;28;20231;-64
2021/09/04 08:10:27;;;;;;;13.03;6.90;;;18.30;99.90;;;;;;5057884;28;20247;-65
2021/09/04 08:12:56;;;;;;;11.03;6.83;;;18.20;99.90;;;;;;5047870;28;20713;-65
2021/09/04 08:15:24;;;;;;;12.57;7.10;;;18.20;99.90;;;;;;5058594;28;20325;-65
2021/09/04 08:17:53;;;;;;;11.40;7.07;;;18.40;99.90;;;;;;5049539;28;20237;-64
2021/09/04 08:20:24;;;;;;;11.33;7.00;;;18.30;99.90;;;;;;5051355;28;20241;-63
2021/09/04 08:22:52;;;;;;;14.63;7.37;;;18.50;99.90;;;;;;5051718;28;20242;-65
2021/09/04 08:25:20;;;;;;;11.70;6.80;;;18.50;99.90;;;;;;5049719;28;20247;-64
2021/09/04 08:27:49;;;;;;;11.77;6.67;;;18.40;99.90;;;;;;5056922;28;20239;-64
2021/09/04 08:30:17;;;;;;;11.57;7.10;;;18.40;99.90;;;;;;5053428;28;20404;-65
2021/09/04 08:32:45;;;;;;;12.07;7.47;;;18.40;99.90;;;;;;5055830;28;20244;-63
2021/09/04 08:35:14;;;;;;;12.40;7.20;;;18.40;99.90;;;;;;5060468;28;20273;-64
2021/09/04 08:37:43;;;;;;;10.20;6.80;;;18.30;99.90;;;;;;5046227;28;20616;-64
2021/09/04 08:40:12;;;;;;;10.90;6.77;;;18.30;99.90;;;;;;5043628;28;20280;-64
2021/09/04 08:42:40;;;;;;;12.87;7.17;;;18.40;99.90;;;;;;5038285;28;20240;-65
2021/09/04 08:45:09;;;;;;;13.97;7.27;;;18.40;99.90;;;;;;5039544;28;20291;-63
2021/09/04 08:47:37;;;;;;;10.47;6.53;;;18.60;99.90;;;;;;5041036;28;20638;-64
2021/09/04 08:50:07;;;;;;;9.07;6.40;;;19.20;99.90;;;;;;5042716;28;20247;-65
2021/09/04 08:52:37;;;;;;;8.63;6.23;;;19.90;99.90;;;;;;5044298;28;20647;-64
2021/09/04 08:55:06;;;;;;;9.40;5.97;;;20.40;99.90;;;;;;5041538;28;20286;-66
2021/09/04 08:57:34;;;;;;;9.07;4.87;;;20.70;99.90;;;;;;5037304;28;20246;-63
2021/09/04 09:00:06;;;;;;;7.47;5.63;;;20.90;99.90;;;;;;5038305;28;20293;-65
2021/09/04 09:02:36;;;;;;;8.73;5.20;;;21.00;99.90;;;;;;5039333;28;20236;-63
2021/09/04 09:05:07;;;;;;;9.47;5.53;;;20.90;99.90;;;;;;5044106;28;20258;-63
2021/09/04 09:07:42;;;;;;;7.50;5.03;;;20.50;99.90;;;;;;5035964;28;20334;-64
2021/09/04 09:10:34;;;;;;;6.87;5.57;;;20.30;99.90;;;;;;5041991;28;20662;-65
2021/09/04 09:13:02;;;;;;;10.13;5.27;;;20.00;99.90;;;;;;5038414;28;20243;-63
2021/09/04 09:15:33;;;;;;;7.63;5.13;;;19.80;99.90;;;;;;5040113;28;20231;-64
2021/09/04 09:18:04;;;;;;;7.50;5.23;;;19.70;99.90;;;;;;5038945;28;20245;-64
2021/09/04 09:20:32;;;;;;;9.80;5.30;;;19.60;99.90;;;;;;5039564;28;20319;-63
2021/09/04 09:23:10;;;;;;;8.67;4.90;;;19.60;99.90;;;;;;5042361;28;20266;-64
2021/09/04 09:25:40;;;;;;;6.80;5.03;;;19.80;99.90;;;;;;5045230;28;20261;-64
2021/09/04 09:28:12;;;;;;;9.63;4.87;;;19.90;99.90;;;;;;5042686;28;20239;-65
2021/09/04 09:30:41;;;;;;;7.23;4.93;;;19.90;99.90;;;;;;5046013;28;20251;-63
2021/09/04 09:33:12;;;;;;;8.20;4.87;;;20.00;99.90;;;;;;5038537;28;20594;-63
2021/09/04 09:35:41;;;;;;;7.90;5.20;;;20.20;99.90;;;;;;5034964;28;20325;-64
2021/09/04 09:38:12;;;;;;;7.97;4.90;;;20.30;99.90;;;;;;5037075;28;20236;-65
2021/09/04 09:40:41;;;;;;;7.37;5.27;;;20.40;99.90;;;;;;5041010;28;20506;-65
2021/09/04 09:43:17;;;;;;;8.53;5.10;;;20.50;99.90;;;;;;5042897;28;20691;-63
2021/09/04 09:45:48;;;;;;;7.77;5.10;;;20.50;99.90;;;;;;5042177;28;20629;-64
2021/09/04 09:48:19;;;;;;;6.87;5.43;;;20.30;99.90;;;;;;5035033;28;20243;-64
2021/09/04 09:50:48;;;;;;;8.87;5.30;;;20.30;99.90;;;;;;5034651;28;20264;-65
2021/09/04 09:53:18;;;;;;;9.20;5.60;;;20.20;99.90;;;;;;5038667;28;20319;-64
2021/09/04 09:55:48;;;;;;;9.33;5.73;;;20.10;99.90;;;;;;5042176;28;20760;-65
2021/09/04 09:58:17;;;;;;;10.07;5.77;;;20.10;99.90;;;;;;5034409;28;20296;-64
2021/09/04 10:00:47;;;;;;;8.93;5.67;;;19.90;99.90;;;;;;5040011;28;20235;-64
2021/09/04 10:03:15;;;;;;;8.90;5.50;;;19.90;99.90;;;;;;5036666;28;20257;-63
2021/09/04 10:05:44;;;;;;;9.13;5.97;;;20.00;99.90;;;;;;5035515;28;20734;-64
2021/09/04 10:08:15;;;;;;;7.23;5.20;;;20.10;99.90;;;;;;5036108;28;20381;-65
2021/09/04 10:10:45;;;;;;;10.77;5.37;;;20.30;99.90;;;;;;5045342;28;20532;-64
2021/09/04 10:13:15;;;;;;;10.13;6.13;;;20.40;99.90;;;;;;5044806;28;20300;-65
2021/09/04 10:15:47;;;;;;;10.70;5.63;;;20.30;99.90;;;;;;5043909;28;20242;-65
2021/09/04 10:18:17;;;;;;;9.17;5.20;;;19.80;99.90;;;;;;5042878;28;20234;-66
2021/09/04 10:20:46;;;;;;;8.73;5.90;;;19.70;99.90;;;;;;5045251;28;20250;-65
2021/09/04 10:23:37;;;;;;;10.80;6.57;;;19.80;99.90;;;;;;5042879;28;20277;-65
2021/09/04 10:26:29;;;;;;;7.97;5.60;;;19.60;99.90;;;;;;5043192;28;20243;-66
2021/09/04 10:29:13;;;;;;;10.60;6.30;;;19.70;99.90;;;;;;5042065;28;20245;-65
2021/09/04 10:31:48;;;;;;;10.10;5.67;;;19.90;99.90;;;;;;5047130;28;20346;-65
2021/09/04 10:34:18;;;;;;;9.47;5.70;;;20.20;99.90;;;;;;5048409;28;20270;-65
2021/09/04 10:37:06;;;;;;;8.97;5.40;;;20.40;99.90;;;;;;5046870;28;20243;-64
2021/09/04 10:39:56;;;;;;;9.17;6.50;;;20.30;99.90;;;;;;5046653;28;20319;-65
2021/09/04 10:42:28;;;;;;;8.30;5.27;;;20.00;99.90;;;;;;5043286;28;20265;-65
2021/09/04 10:45:03;;;;;;;8.17;5.73;;;19.80;99.90;;;;;;5046597;28;20770;-67
2021/09/04 10:47:41;;;;;;;12.17;5.73;;;20.00;99.90;;;;;;5049124;28;20265;-65
2021/09/04 10:50:16;;;;;;;10.50;6.03;;;20.00;99.90;;;;;;5048969;28;20230;-66
2021/09/04 10:52:56;;;;;;;7.37;5.40;;;20.30;99.90;;;;;;5049033;28;20349;-65
2021/09/04 10:55:26;;;;;;;10.57;5.57;;;20.60;99.90;;;;;;5046992;28;20687;-65
2021/09/04 10:58:04;;;;;;;11.30;5.70;;;20.70;99.90;;;;;;5049880;28;20236;-65
2021/09/04 11:00:40;;;;;;;11.50;6.13;;;20.80;99.90;;;;;;5047598;28;20594;-66
2021/09/04 11:03:10;;;;;;;12.27;6.00;;;20.60;99.90;;;;;;5048590;28;20230;-65
2021/09/04 11:05:47;;;;;;;9.37;5.80;;;20.30;99.90;;;;;;5049093;28;20238;-66
2021/09/04 11:08:47;;;;;;;7.50;5.60;;;20.20;99.90;;;;;;5041353;28;20249;-65
2021/09/04 11:11:35;;;;;;;9.60;5.80;;;20.20;99.90;;;;;;5049087;28;20249;-65
2021/09/04 11:14:18;;;;;;;9.50;5.87;;;20.20;99.90;;;;;;5046781;28;20243;-64
2021/09/04 11:16:48;;;;;;;10.10;5.80;;;20.30;99.90;;;;;;5049433;28;20980;-65
2021/09/04 11:19:22;;;;;;;10.03;5.93;;;20.30;99.90;;;;;;5048348;28;20251;-65
2021/09/04 11:21:59;;;;;;;9.87;5.80;;;20.20;99.90;;;;;;5048914;28;20298;-65
2021/09/04 11:24:33;;;;;;;12.47;6.47;;;20.20;99.90;;;;;;5037894;28;20393;-66
2021/09/04 11:27:04;;;;;;;10.47;6.37;;;20.20;99.90;;;;;;5027541;28;20522;-66
2021/09/04 11:29:43;;;;;;;9.27;5.50;;;20.20;99.90;;;;;;5027069;28;20294;-65
2021/09/04 11:32:13;;;;;;;9.30;5.60;;;20.20;99.90;;;;;;5027058;28;20329;-66
2021/09/04 11:34:49;;;;;;;10.30;5.90;;;20.20;99.90;;;;;;5022387;28;20229;-66
2021/09/04 11:37:21;;;;;;;7.87;5.03;;;20.30;99.90;;;;;;5026806;28;20243;-67
2021/09/04 11:39:51;;;;;;;11.03;5.70;;;20.60;99.90;;;;;;5027110;28;20239;-66
2021/09/04 11:42:22;;;;;;;9.17;5.37;;;20.80;99.90;;;;;;5023095;28;20588;-65
2021/09/04 11:44:54;;;;;;;8.40;4.70;;;20.90;99.90;;;;;;5026811;28;20240;-64
2021/09/04 11:47:23;;;;;;;8.87;4.97;;;21.20;99.90;;;;;;5025063;28;20247;-66
2021/09/04 11:49:53;;;;;;;9.90;4.93;;;21.20;99.90;;;;;;5026502;28;20236;-64
2021/09/04 11:52:28;;;;;;;7.57;4.63;;;21.10;99.90;;;;;;5024582;28;20255;-66
2021/09/04 11:55:06;;;;;;;8.70;5.00;;;21.00;99.90;;;;;;5029098;28;20290;-64
2021/09/04 11:57:35;;;;;;;8.37;4.80;;;20.90;99.90;;;;;;5026905;28;20231;-66
2021/09/04 12:00:17;;;;;;;10.77;4.57;;;21.10;99.90;;;;;;5023405;28;20228;-65
2021/09/04 12:02:47;;;;;;;8.23;4.50;;;21.10;99.90;;;;;;5024166;28;20800;-65
2021/09/04 12:05:17;;;;;;;9.33;5.10;;;21.30;99.90;;;;;;5024639;28;20236;-65
2021/09/04 12:07:46;;;;;;;9.03;4.43;;;21.20;99.90;;;;;;5026174;28;20697;-65
2021/09/04 12:10:17;;;;;;;10.53;5.40;;;21.20;99.90;;;;;;5025925;28;20301;-66
2021/09/04 12:12:46;;;;;;;9.30;4.60;;;21.30;99.90;;;;;;5021713;28;20250;-65
2021/09/04 12:15:16;;;;;;;8.93;4.70;;;21.50;99.90;;;;;;5024737;28;20596;-66
2021/09/04 12:17:52;;;;;;;8.00;4.20;;;21.70;99.90;;;;;;5025848;28;20336;-64
2021/09/04 12:20:27;;;;;;;5.80;4.07;;;21.50;99.90;;;;;;5022909;28;20682;-65
2021/09/04 12:23:00;;;;;;;8.30;4.57;;;21.30;99.90;;;;;;5035934;28;20270;-63
2021/09/04 12:25:31;;;;;;;9.03;4.50;;;21.40;99.90;;;;;;5045575;28;20315;-64
2021/09/04 12:28:02;;;;;;;6.90;4.50;;;21.60;99.90;;;;;;5046773;28;20255;-66
2021/09/04 12:30:31;;;;;;;6.30;4.33;;;21.50;99.90;;;;;;5045995;28;20321;-65
2021/09/04 12:33:08;;;;;;;7.90;4.83;;;21.20;99.90;;;;;;5046142;28;20255;-64
2021/09/04 12:35:51;;;;;;;9.73;4.57;;;21.10;99.90;;;;;;5045197;28;20273;-65
2021/09/04 12:38:20;;;;;;;9.00;4.43;;;21.00;99.90;;;;;;5030760;28;20240;-65
2021/09/04 12:41:09;;;;;;;6.67;4.23;;;21.00;99.90;;;;;;5025620;28;20232;-64
2021/09/04 12:43:56;;;;;;;6.60;4.00;;;21.20;99.90;;;;;;5038455;28;20294;-65
2021/09/04 12:46:37;;;;;;;7.40;4.07;;;21.60;99.90;;;;;;5039054;28;20315;-65
2021/09/04 12:49:20;;;;;;;9.43;4.60;;;22.10;99.90;;;;;;5045570;28;20759;-62
2021/09/04 12:51:58;;;;;;;8.93;4.17;;;22.20;99.90;;;;;;5046211;28;20246;-63
2021/09/04 12:54:32;;;;;;;17.47;4.37;;;21.90;99.90;;;;;;5041662;28;20695;-62
2021/09/04 12:57:12;;;;;;;6.10;3.80;;;21.90;99.90;;;;;;5031708;28;20715;-63
2021/09/04 12:59:45;;;;;;;14.07;4.00;;;21.60;99.90;;;;;;5029989;28;20244;-64
2021/09/04 13:02:17;;;;;;;9.13;4.03;;;21.60;99.90;;;;;;5027214;28;20247;-61